Terminal Aerodrome Forecast
Issued by NWS Goodland, KS

Home | Current Version | Previous Version | Text Only | Print | Product List | Glossary On
Versions: 1 2 3 4 5 6 7 8 9 10 11 12 13 14 15 16 17 18 19 20 21 22 23 24 25 26 27 28 29 30 31 32 33 34
000
FTUS43 KGLD 252329
TAFGLD
TAF
KGLD 252329Z 2600/2624 16007KT P6SM FEW100 SCT250
     FM260300 VRB05KT P6SM VCTS SCT090CB BKN200
     FM260500 11007KT P6SM FEW090 SCT110
     FM260800 17006KT P6SM FEW090 SCT250=

USA.gov is the U.S. government's official web portal to all federal, state and local government web resources and services.